sensor_id;sensor_type;location;lat;lon;timestamp;P1;durP1;ratioP1;P2;durP2;ratioP2
40471;SDS011;26174;42.908;23.800;2022-07-19T00:02:13;5.95;;;4.45;;
40471;SDS011;26174;42.908;23.800;2022-07-19T00:04:39;9.70;;;4.78;;
40471;SDS011;26174;42.908;23.800;2022-07-19T00:07:04;7.50;;;4.90;;
40471;SDS011;26174;42.908;23.800;2022-07-19T00:09:30;9.70;;;4.22;;
40471;SDS011;26174;42.908;23.800;2022-07-19T00:11:56;7.90;;;4.80;;
40471;SDS011;26174;42.908;23.800;2022-07-19T00:14:21;7.35;;;4.28;;
40471;SDS011;26174;42.908;23.800;2022-07-19T00:16:47;4.85;;;4.15;;
40471;SDS011;26174;42.908;23.800;2022-07-19T00:19:13;4.78;;;3.70;;
40471;SDS011;26174;42.908;23.800;2022-07-19T00:21:39;7.30;;;3.58;;
40471;SDS011;26174;42.908;23.800;2022-07-19T00:24:04;8.80;;;4.07;;
40471;SDS011;26174;42.908;23.800;2022-07-19T00:26:30;7.47;;;3.95;;
40471;SDS011;26174;42.908;23.800;2022-07-19T00:28:56;5.25;;;4.35;;
40471;SDS011;26174;42.908;23.800;2022-07-19T00:31:22;4.68;;;4.10;;
40471;SDS011;26174;42.908;23.800;2022-07-19T00:33:48;6.85;;;4.57;;
40471;SDS011;26174;42.908;23.800;2022-07-19T00:36:14;6.72;;;4.15;;
40471;SDS011;26174;42.908;23.800;2022-07-19T00:38:40;5.50;;;3.92;;
40471;SDS011;26174;42.908;23.800;2022-07-19T00:41:06;7.90;;;4.05;;
40471;SDS011;26174;42.908;23.800;2022-07-19T00:43:31;7.07;;;4.20;;
40471;SDS011;26174;42.908;23.800;2022-07-19T00:45:57;5.90;;;3.95;;
40471;SDS011;26174;42.908;23.800;2022-07-19T00:48:23;9.38;;;3.78;;
40471;SDS011;26174;42.908;23.800;2022-07-19T00:50:48;5.45;;;3.80;;
40471;SDS011;26174;42.908;23.800;2022-07-19T00:53:14;6.18;;;4.38;;
40471;SDS011;26174;42.908;23.800;2022-07-19T00:55:41;7.03;;;4.20;;
40471;SDS011;26174;42.908;23.800;2022-07-19T00:58:07;9.52;;;4.10;;
40471;SDS011;26174;42.908;23.800;2022-07-19T01:00:34;7.88;;;4.30;;
40471;SDS011;26174;42.908;23.800;2022-07-19T01:03:00;7.95;;;4.28;;
40471;SDS011;26174;42.908;23.800;2022-07-19T01:05:26;5.70;;;4.47;;
40471;SDS011;26174;42.908;23.800;2022-07-19T01:07:52;14.82;;;4.38;;
40471;SDS011;26174;42.908;23.800;2022-07-19T01:10:17;8.45;;;4.43;;
40471;SDS011;26174;42.908;23.800;2022-07-19T01:12:46;10.75;;;5.10;;
40471;SDS011;26174;42.908;23.800;2022-07-19T01:15:13;10.27;;;5.25;;
40471;SDS011;26174;42.908;23.800;2022-07-19T01:17:42;9.43;;;5.32;;
40471;SDS011;26174;42.908;23.800;2022-07-19T01:20:09;16.67;;;5.40;;
40471;SDS011;26174;42.908;23.800;2022-07-19T01:22:35;7.30;;;5.30;;
40471;SDS011;26174;42.908;23.800;2022-07-19T01:25:00;15.93;;;5.60;;
40471;SDS011;26174;42.908;23.800;2022-07-19T01:27:26;5.18;;;4.47;;
40471;SDS011;26174;42.908;23.800;2022-07-19T01:29:52;5.80;;;4.30;;
40471;SDS011;26174;42.908;23.800;2022-07-19T01:32:17;5.70;;;4.00;;
40471;SDS011;26174;42.908;23.800;2022-07-19T01:34:43;13.43;;;4.90;;
40471;SDS011;26174;42.908;23.800;2022-07-19T01:37:08;5.97;;;4.43;;
40471;SDS011;26174;42.908;23.800;2022-07-19T01:39:34;6.15;;;4.38;;
40471;SDS011;26174;42.908;23.800;2022-07-19T01:42:00;5.95;;;4.40;;
40471;SDS011;26174;42.908;23.800;2022-07-19T01:44:25;6.05;;;4.47;;
40471;SDS011;26174;42.908;23.800;2022-07-19T01:46:51;6.88;;;4.30;;
40471;SDS011;26174;42.908;23.800;2022-07-19T01:49:16;8.32;;;5.18;;
40471;SDS011;26174;42.908;23.800;2022-07-19T01:51:42;7.95;;;4.63;;
40471;SDS011;26174;42.908;23.800;2022-07-19T01:54:07;8.88;;;5.18;;
40471;SDS011;26174;42.908;23.800;2022-07-19T01:56:33;6.95;;;4.75;;
40471;SDS011;26174;42.908;23.800;2022-07-19T01:58:58;7.25;;;4.68;;
40471;SDS011;26174;42.908;23.800;2022-07-19T02:01:24;5.75;;;4.60;;
40471;SDS011;26174;42.908;23.800;2022-07-19T02:03:50;5.70;;;4.68;;
40471;SDS011;26174;42.908;23.800;2022-07-19T02:06:15;8.45;;;4.75;;
40471;SDS011;26174;42.908;23.800;2022-07-19T02:08:41;8.05;;;4.72;;
40471;SDS011;26174;42.908;23.800;2022-07-19T02:11:07;6.53;;;4.38;;
40471;SDS011;26174;42.908;23.800;2022-07-19T02:13:51;6.25;;;4.55;;
40471;SDS011;26174;42.908;23.800;2022-07-19T02:16:17;7.50;;;5.22;;
40471;SDS011;26174;42.908;23.800;2022-07-19T02:18:42;6.75;;;4.68;;
40471;SDS011;26174;42.908;23.800;2022-07-19T02:21:08;10.35;;;4.90;;
40471;SDS011;26174;42.908;23.800;2022-07-19T02:23:33;6.82;;;5.00;;
40471;SDS011;26174;42.908;23.800;2022-07-19T02:25:59;10.35;;;5.20;;
40471;SDS011;26174;42.908;23.800;2022-07-19T02:28:24;9.18;;;5.45;;
40471;SDS011;26174;42.908;23.800;2022-07-19T02:30:50;7.78;;;4.88;;
40471;SDS011;26174;42.908;23.800;2022-07-19T02:33:15;10.68;;;4.97;;
40471;SDS011;26174;42.908;23.800;2022-07-19T02:35:41;10.00;;;5.07;;
40471;SDS011;26174;42.908;23.800;2022-07-19T02:38:07;14.43;;;5.53;;
40471;SDS011;26174;42.908;23.800;2022-07-19T02:40:32;10.85;;;5.03;;
40471;SDS011;26174;42.908;23.800;2022-07-19T02:42:58;8.85;;;5.15;;
40471;SDS011;26174;42.908;23.800;2022-07-19T02:45:23;9.15;;;5.15;;
40471;SDS011;26174;42.908;23.800;2022-07-19T02:47:49;7.47;;;5.50;;
40471;SDS011;26174;42.908;23.800;2022-07-19T02:50:14;10.05;;;5.18;;
40471;SDS011;26174;42.908;23.800;2022-07-19T02:52:40;8.68;;;4.90;;
40471;SDS011;26174;42.908;23.800;2022-07-19T02:55:06;7.82;;;4.68;;
40471;SDS011;26174;42.908;23.800;2022-07-19T02:57:32;7.05;;;5.63;;
40471;SDS011;26174;42.908;23.800;2022-07-19T02:59:57;8.40;;;5.10;;
40471;SDS011;26174;42.908;23.800;2022-07-19T03:02:23;8.93;;;5.88;;
40471;SDS011;26174;42.908;23.800;2022-07-19T03:04:49;8.77;;;4.97;;
40471;SDS011;26174;42.908;23.800;2022-07-19T03:07:14;9.02;;;5.00;;
40471;SDS011;26174;42.908;23.800;2022-07-19T03:09:40;11.98;;;4.82;;
40471;SDS011;26174;42.908;23.800;2022-07-19T03:12:06;10.10;;;5.13;;
40471;SDS011;26174;42.908;23.800;2022-07-19T03:14:31;8.18;;;4.75;;
40471;SDS011;26174;42.908;23.800;2022-07-19T03:16:57;8.27;;;4.90;;
40471;SDS011;26174;42.908;23.800;2022-07-19T03:19:23;8.55;;;4.88;;
40471;SDS011;26174;42.908;23.800;2022-07-19T03:21:51;13.77;;;5.55;;
40471;SDS011;26174;42.908;23.800;2022-07-19T03:24:17;15.55;;;5.32;;
40471;SDS011;26174;42.908;23.800;2022-07-19T03:26:43;12.05;;;4.97;;
40471;SDS011;26174;42.908;23.800;2022-07-19T03:29:09;10.40;;;5.63;;
40471;SDS011;26174;42.908;23.800;2022-07-19T03:31:34;13.60;;;6.10;;
40471;SDS011;26174;42.908;23.800;2022-07-19T03:34:00;10.95;;;5.85;;
40471;SDS011;26174;42.908;23.800;2022-07-19T03:36:25;8.75;;;6.15;;
40471;SDS011;26174;42.908;23.800;2022-07-19T03:38:51;11.27;;;5.72;;
40471;SDS011;26174;42.908;23.800;2022-07-19T03:41:16;6.88;;;5.65;;
40471;SDS011;26174;42.908;23.800;2022-07-19T03:43:42;10.45;;;6.38;;
40471;SDS011;26174;42.908;23.800;2022-07-19T03:46:07;11.48;;;6.28;;
40471;SDS011;26174;42.908;23.800;2022-07-19T03:48:33;10.68;;;5.40;;
40471;SDS011;26174;42.908;23.800;2022-07-19T03:50:59;18.23;;;5.55;;
40471;SDS011;26174;42.908;23.800;2022-07-19T03:53:24;10.13;;;5.40;;
40471;SDS011;26174;42.908;23.800;2022-07-19T03:56:03;19.92;;;6.47;;
40471;SDS011;26174;42.908;23.800;2022-07-19T03:58:53;26.55;;;7.05;;
40471;SDS011;26174;42.908;23.800;2022-07-19T04:01:37;27.83;;;7.22;;
40471;SDS011;26174;42.908;23.800;2022-07-19T04:04:10;24.23;;;8.43;;
40471;SDS011;26174;42.908;23.800;2022-07-19T04:06:48;27.20;;;8.02;;
40471;SDS011;26174;42.908;23.800;2022-07-19T04:09:17;15.83;;;7.77;;
40471;SDS011;26174;42.908;23.800;2022-07-19T04:11:55;15.63;;;7.50;;
40471;SDS011;26174;42.908;23.800;2022-07-19T04:14:24;20.05;;;7.63;;
40471;SDS011;26174;42.908;23.800;2022-07-19T04:17:13;18.67;;;8.60;;
40471;SDS011;26174;42.908;23.800;2022-07-19T04:19:39;15.68;;;8.38;;
40471;SDS011;26174;42.908;23.800;2022-07-19T04:22:05;24.50;;;9.48;;
40471;SDS011;26174;42.908;23.800;2022-07-19T04:24:30;33.72;;;9.77;;
40471;SDS011;26174;42.908;23.800;2022-07-19T04:26:56;27.83;;;10.02;;
40471;SDS011;26174;42.908;23.800;2022-07-19T04:29:21;17.38;;;9.48;;
40471;SDS011;26174;42.908;23.800;2022-07-19T04:31:47;27.35;;;10.18;;
40471;SDS011;26174;42.908;23.800;2022-07-19T04:34:13;20.05;;;9.93;;
40471;SDS011;26174;42.908;23.800;2022-07-19T04:36:38;16.60;;;9.82;;
40471;SDS011;26174;42.908;23.800;2022-07-19T04:39:04;18.50;;;10.10;;
40471;SDS011;26174;42.908;23.800;2022-07-19T04:41:29;19.17;;;9.73;;
40471;SDS011;26174;42.908;23.800;2022-07-19T04:43:55;24.00;;;10.73;;
40471;SDS011;26174;42.908;23.800;2022-07-19T04:46:20;25.23;;;10.43;;
40471;SDS011;26174;42.908;23.800;2022-07-19T04:48:46;27.33;;;9.55;;
40471;SDS011;26174;42.908;23.800;2022-07-19T04:51:11;14.88;;;9.77;;
40471;SDS011;26174;42.908;23.800;2022-07-19T04:53:37;23.20;;;9.73;;
40471;SDS011;26174;42.908;23.800;2022-07-19T04:56:03;21.55;;;10.25;;
40471;SDS011;26174;42.908;23.800;2022-07-19T04:58:28;24.45;;;9.07;;
40471;SDS011;26174;42.908;23.800;2022-07-19T05:00:54;27.00;;;10.35;;
40471;SDS011;26174;42.908;23.800;2022-07-19T05:03:20;25.58;;;9.27;;
40471;SDS011;26174;42.908;23.800;2022-07-19T05:05:45;15.82;;;9.02;;
40471;SDS011;26174;42.908;23.800;2022-07-19T05:08:11;27.92;;;8.55;;
40471;SDS011;26174;42.908;23.800;2022-07-19T05:10:37;23.08;;;8.15;;
40471;SDS011;26174;42.908;23.800;2022-07-19T05:13:02;13.15;;;7.30;;
40471;SDS011;26174;42.908;23.800;2022-07-19T05:15:28;17.55;;;7.57;;
40471;SDS011;26174;42.908;23.800;2022-07-19T05:17:53;14.90;;;7.13;;
40471;SDS011;26174;42.908;23.800;2022-07-19T05:20:19;21.55;;;5.93;;
40471;SDS011;26174;42.908;23.800;2022-07-19T05:22:44;9.27;;;6.00;;
40471;SDS011;26174;42.908;23.800;2022-07-19T05:25:10;15.88;;;6.60;;
40471;SDS011;26174;42.908;23.800;2022-07-19T05:27:36;13.45;;;7.05;;
40471;SDS011;26174;42.908;23.800;2022-07-19T05:30:03;21.33;;;8.25;;
40471;SDS011;26174;42.908;23.800;2022-07-19T05:32:29;19.08;;;7.45;;
40471;SDS011;26174;42.908;23.800;2022-07-19T05:34:55;15.98;;;6.80;;
40471;SDS011;26174;42.908;23.800;2022-07-19T05:37:21;18.70;;;7.03;;
40471;SDS011;26174;42.908;23.800;2022-07-19T05:39:46;12.27;;;7.22;;
40471;SDS011;26174;42.908;23.800;2022-07-19T05:42:12;23.98;;;7.38;;
40471;SDS011;26174;42.908;23.800;2022-07-19T05:44:37;13.45;;;6.22;;
40471;SDS011;26174;42.908;23.800;2022-07-19T05:47:03;24.33;;;7.05;;
40471;SDS011;26174;42.908;23.800;2022-07-19T05:49:29;20.60;;;5.88;;
40471;SDS011;26174;42.908;23.800;2022-07-19T05:51:54;12.05;;;5.90;;
40471;SDS011;26174;42.908;23.800;2022-07-19T05:54:20;13.43;;;5.53;;
40471;SDS011;26174;42.908;23.800;2022-07-19T05:56:46;12.93;;;5.35;;
40471;SDS011;26174;42.908;23.800;2022-07-19T05:59:11;11.80;;;5.57;;
40471;SDS011;26174;42.908;23.800;2022-07-19T06:01:37;16.55;;;5.47;;
40471;SDS011;26174;42.908;23.800;2022-07-19T06:04:02;13.80;;;4.78;;
40471;SDS011;26174;42.908;23.800;2022-07-19T06:06:30;11.43;;;4.60;;
40471;SDS011;26174;42.908;23.800;2022-07-19T06:08:58;9.85;;;4.15;;
40471;SDS011;26174;42.908;23.800;2022-07-19T06:11:24;10.27;;;4.90;;
40471;SDS011;26174;42.908;23.800;2022-07-19T06:13:50;9.20;;;4.90;;
40471;SDS011;26174;42.908;23.800;2022-07-19T06:16:16;18.05;;;5.70;;
40471;SDS011;26174;42.908;23.800;2022-07-19T06:18:42;10.82;;;5.28;;
40471;SDS011;26174;42.908;23.800;2022-07-19T06:21:09;11.77;;;4.90;;
40471;SDS011;26174;42.908;23.800;2022-07-19T06:23:36;8.32;;;4.45;;
40471;SDS011;26174;42.908;23.800;2022-07-19T06:26:03;6.93;;;4.60;;
40471;SDS011;26174;42.908;23.800;2022-07-19T06:28:29;8.57;;;5.10;;
40471;SDS011;26174;42.908;23.800;2022-07-19T06:30:55;10.95;;;7.07;;
40471;SDS011;26174;42.908;23.800;2022-07-19T06:33:20;7.35;;;4.53;;
40471;SDS011;26174;42.908;23.800;2022-07-19T06:35:46;7.70;;;4.22;;
40471;SDS011;26174;42.908;23.800;2022-07-19T06:38:12;11.00;;;4.65;;
40471;SDS011;26174;42.908;23.800;2022-07-19T06:40:38;7.35;;;4.70;;
40471;SDS011;26174;42.908;23.800;2022-07-19T06:43:03;14.70;;;4.70;;
40471;SDS011;26174;42.908;23.800;2022-07-19T06:45:29;11.18;;;5.93;;
40471;SDS011;26174;42.908;23.800;2022-07-19T06:47:56;5.18;;;4.28;;
40471;SDS011;26174;42.908;23.800;2022-07-19T06:50:22;8.23;;;4.50;;
40471;SDS011;26174;42.908;23.800;2022-07-19T06:52:47;15.90;;;5.05;;
40471;SDS011;26174;42.908;23.800;2022-07-19T06:55:13;6.20;;;4.10;;
40471;SDS011;26174;42.908;23.800;2022-07-19T06:57:39;7.90;;;4.30;;
40471;SDS011;26174;42.908;23.800;2022-07-19T07:00:05;9.05;;;4.63;;
40471;SDS011;26174;42.908;23.800;2022-07-19T07:02:32;8.93;;;4.00;;
40471;SDS011;26174;42.908;23.800;2022-07-19T07:04:58;7.22;;;3.80;;
40471;SDS011;26174;42.908;23.800;2022-07-19T07:07:24;5.47;;;3.80;;
40471;SDS011;26174;42.908;23.800;2022-07-19T07:09:50;6.65;;;3.60;;
40471;SDS011;26174;42.908;23.800;2022-07-19T07:12:15;9.57;;;4.57;;
40471;SDS011;26174;42.908;23.800;2022-07-19T07:14:41;4.75;;;4.00;;
40471;SDS011;26174;42.908;23.800;2022-07-19T07:17:06;7.53;;;4.25;;
40471;SDS011;26174;42.908;23.800;2022-07-19T07:19:32;6.32;;;3.85;;
40471;SDS011;26174;42.908;23.800;2022-07-19T07:21:57;7.55;;;3.70;;
40471;SDS011;26174;42.908;23.800;2022-07-19T07:24:25;9.05;;;4.25;;
40471;SDS011;26174;42.908;23.800;2022-07-19T07:26:51;4.95;;;3.80;;
40471;SDS011;26174;42.908;23.800;2022-07-19T07:29:17;4.45;;;3.30;;
40471;SDS011;26174;42.908;23.800;2022-07-19T07:31:42;5.90;;;3.60;;
40471;SDS011;26174;42.908;23.800;2022-07-19T07:34:08;50.40;;;5.72;;
40471;SDS011;26174;42.908;23.800;2022-07-19T07:36:33;8.43;;;3.60;;
40471;SDS011;26174;42.908;23.800;2022-07-19T07:38:59;4.18;;;3.53;;
40471;SDS011;26174;42.908;23.800;2022-07-19T07:41:25;12.23;;;3.75;;
40471;SDS011;26174;42.908;23.800;2022-07-19T07:43:50;10.30;;;3.38;;
40471;SDS011;26174;42.908;23.800;2022-07-19T07:46:16;8.27;;;3.28;;
40471;SDS011;26174;42.908;23.800;2022-07-19T07:48:41;6.90;;;4.18;;
40471;SDS011;26174;42.908;23.800;2022-07-19T07:51:07;9.70;;;3.47;;
40471;SDS011;26174;42.908;23.800;2022-07-19T07:53:33;5.55;;;3.10;;
40471;SDS011;26174;42.908;23.800;2022-07-19T07:55:58;13.35;;;3.15;;
40471;SDS011;26174;42.908;23.800;2022-07-19T07:58:24;9.18;;;2.90;;
40471;SDS011;26174;42.908;23.800;2022-07-19T08:00:49;6.60;;;2.53;;
40471;SDS011;26174;42.908;23.800;2022-07-19T08:03:15;4.45;;;2.60;;
40471;SDS011;26174;42.908;23.800;2022-07-19T08:05:42;13.10;;;3.88;;
40471;SDS011;26174;42.908;23.800;2022-07-19T08:08:12;3.58;;;2.75;;
40471;SDS011;26174;42.908;23.800;2022-07-19T08:10:39;3.13;;;2.58;;
40471;SDS011;26174;42.908;23.800;2022-07-19T08:13:04;5.28;;;2.53;;
40471;SDS011;26174;42.908;23.800;2022-07-19T08:15:30;14.45;;;3.33;;
40471;SDS011;26174;42.908;23.800;2022-07-19T08:17:56;8.15;;;2.58;;
40471;SDS011;26174;42.908;23.800;2022-07-19T08:20:21;6.03;;;2.40;;
40471;SDS011;26174;42.908;23.800;2022-07-19T08:22:47;4.70;;;2.50;;
40471;SDS011;26174;42.908;23.800;2022-07-19T08:25:13;10.40;;;2.33;;
40471;SDS011;26174;42.908;23.800;2022-07-19T08:27:41;4.82;;;2.50;;
40471;SDS011;26174;42.908;23.800;2022-07-19T08:30:08;3.00;;;2.40;;
40471;SDS011;26174;42.908;23.800;2022-07-19T08:32:34;2.67;;;2.47;;
40471;SDS011;26174;42.908;23.800;2022-07-19T08:35:00;3.03;;;2.50;;
40471;SDS011;26174;42.908;23.800;2022-07-19T08:37:25;4.20;;;2.67;;
40471;SDS011;26174;42.908;23.800;2022-07-19T08:39:51;5.25;;;2.58;;
40471;SDS011;26174;42.908;23.800;2022-07-19T08:42:20;5.25;;;2.78;;
40471;SDS011;26174;42.908;23.800;2022-07-19T08:44:47;6.15;;;2.70;;
40471;SDS011;26174;42.908;23.800;2022-07-19T08:47:16;4.45;;;2.42;;
40471;SDS011;26174;42.908;23.800;2022-07-19T08:49:43;2.20;;;2.00;;
40471;SDS011;26174;42.908;23.800;2022-07-19T08:52:10;4.10;;;2.40;;
40471;SDS011;26174;42.908;23.800;2022-07-19T08:54:36;7.97;;;2.65;;
40471;SDS011;26174;42.908;23.800;2022-07-19T08:57:02;5.40;;;2.67;;
40471;SDS011;26174;42.908;23.800;2022-07-19T08:59:46;8.85;;;2.90;;
40471;SDS011;26174;42.908;23.800;2022-07-19T09:02:12;4.45;;;2.00;;
40471;SDS011;26174;42.908;23.800;2022-07-19T09:04:37;12.80;;;2.78;;
40471;SDS011;26174;42.908;23.800;2022-07-19T09:07:03;3.80;;;2.60;;
40471;SDS011;26174;42.908;23.800;2022-07-19T09:11:55;10.80;;;4.72;;
40471;SDS011;26174;42.908;23.800;2022-07-19T09:14:23;8.80;;;3.30;;
40471;SDS011;26174;42.908;23.800;2022-07-19T09:17:12;6.60;;;2.70;;
40471;SDS011;26174;42.908;23.800;2022-07-19T09:19:42;7.68;;;2.53;;
40471;SDS011;26174;42.908;23.800;2022-07-19T09:22:13;8.40;;;2.65;;
40471;SDS011;26174;42.908;23.800;2022-07-19T09:24:40;3.63;;;2.67;;
40471;SDS011;26174;42.908;23.800;2022-07-19T09:27:09;3.97;;;2.30;;
40471;SDS011;26174;42.908;23.800;2022-07-19T09:29:37;7.70;;;2.92;;
40471;SDS011;26174;42.908;23.800;2022-07-19T09:32:05;5.53;;;2.47;;
40471;SDS011;26174;42.908;23.800;2022-07-19T09:34:37;5.72;;;4.00;;
40471;SDS011;26174;42.908;23.800;2022-07-19T09:37:24;8.80;;;3.28;;
40471;SDS011;26174;42.908;23.800;2022-07-19T09:39:55;4.78;;;2.88;;
40471;SDS011;26174;42.908;23.800;2022-07-19T09:42:35;5.05;;;2.55;;
40471;SDS011;26174;42.908;23.800;2022-07-19T09:45:09;3.97;;;2.25;;
40471;SDS011;26174;42.908;23.800;2022-07-19T09:47:37;6.20;;;3.00;;
40471;SDS011;26174;42.908;23.800;2022-07-19T09:50:05;2.63;;;2.25;;
40471;SDS011;26174;42.908;23.800;2022-07-19T09:52:33;6.60;;;3.13;;
40471;SDS011;26174;42.908;23.800;2022-07-19T09:55:00;8.95;;;2.40;;
40471;SDS011;26174;42.908;23.800;2022-07-19T09:59:58;5.82;;;2.40;;
40471;SDS011;26174;42.908;23.800;2022-07-19T10:02:24;5.45;;;2.25;;
40471;SDS011;26174;42.908;23.800;2022-07-19T10:04:50;5.65;;;2.83;;
40471;SDS011;26174;42.908;23.800;2022-07-19T10:07:16;9.43;;;3.13;;
40471;SDS011;26174;42.908;23.800;2022-07-19T10:09:43;4.93;;;2.53;;
40471;SDS011;26174;42.908;23.800;2022-07-19T10:12:09;4.03;;;2.75;;
40471;SDS011;26174;42.908;23.800;2022-07-19T10:14:36;7.97;;;2.88;;
40471;SDS011;26174;42.908;23.800;2022-07-19T10:17:08;5.25;;;2.20;;
40471;SDS011;26174;42.908;23.800;2022-07-19T10:19:55;4.25;;;2.25;;
40471;SDS011;26174;42.908;23.800;2022-07-19T10:22:22;7.07;;;2.45;;
40471;SDS011;26174;42.908;23.800;2022-07-19T10:25:31;10.65;;;2.85;;
40471;SDS011;26174;42.908;23.800;2022-07-19T10:27:40;6.93;;;2.33;;
40471;SDS011;26174;42.908;23.800;2022-07-19T10:32:33;8.90;;;2.47;;
40471;SDS011;26174;42.908;23.800;2022-07-19T10:35:15;7.15;;;2.30;;
40471;SDS011;26174;42.908;23.800;2022-07-19T10:37:47;5.97;;;2.22;;
40471;SDS011;26174;42.908;23.800;2022-07-19T10:43:05;7.03;;;2.35;;
40471;SDS011;26174;42.908;23.800;2022-07-19T10:45:31;8.95;;;2.40;;
40471;SDS011;26174;42.908;23.800;2022-07-19T10:47:58;14.30;;;2.40;;
40471;SDS011;26174;42.908;23.800;2022-07-19T10:50:41;3.13;;;2.05;;
40471;SDS011;26174;42.908;23.800;2022-07-19T10:53:37;2.35;;;2.15;;
40471;SDS011;26174;42.908;23.800;2022-07-19T10:58:46;12.15;;;2.45;;
40471;SDS011;26174;42.908;23.800;2022-07-19T11:01:16;7.72;;;3.85;;
40471;SDS011;26174;42.908;23.800;2022-07-19T11:03:47;4.18;;;2.30;;
40471;SDS011;26174;42.908;23.800;2022-07-19T11:06:21;4.95;;;2.08;;
40471;SDS011;26174;42.908;23.800;2022-07-19T11:08:55;6.97;;;5.28;;
40471;SDS011;26174;42.908;23.800;2022-07-19T11:11:22;5.50;;;2.17;;
40471;SDS011;26174;42.908;23.800;2022-07-19T11:13:54;3.17;;;2.00;;
40471;SDS011;26174;42.908;23.800;2022-07-19T11:16:26;5.28;;;1.95;;
40471;SDS011;26174;42.908;23.800;2022-07-19T11:19:01;4.47;;;2.05;;
40471;SDS011;26174;42.908;23.800;2022-07-19T11:21:34;5.70;;;2.22;;
40471;SDS011;26174;42.908;23.800;2022-07-19T11:24:02;8.43;;;2.22;;
40471;SDS011;26174;42.908;23.800;2022-07-19T11:26:33;7.50;;;1.92;;
40471;SDS011;26174;42.908;23.800;2022-07-19T11:29:01;17.58;;;2.17;;
40471;SDS011;26174;42.908;23.800;2022-07-19T11:31:26;15.40;;;2.53;;
40471;SDS011;26174;42.908;23.800;2022-07-19T11:33:53;11.25;;;2.65;;
40471;SDS011;26174;42.908;23.800;2022-07-19T11:36:22;13.05;;;2.13;;
40471;SDS011;26174;42.908;23.800;2022-07-19T11:38:49;1.70;;;1.60;;
40471;SDS011;26174;42.908;23.800;2022-07-19T11:41:28;6.07;;;1.80;;
40471;SDS011;26174;42.908;23.800;2022-07-19T11:43:59;4.38;;;1.95;;
40471;SDS011;26174;42.908;23.800;2022-07-19T11:46:27;3.38;;;1.80;;
40471;SDS011;26174;42.908;23.800;2022-07-19T11:48:56;3.35;;;1.80;;
40471;SDS011;26174;42.908;23.800;2022-07-19T11:51:22;3.33;;;2.15;;
40471;SDS011;26174;42.908;23.800;2022-07-19T11:53:48;6.18;;;1.83;;
40471;SDS011;26174;42.908;23.800;2022-07-19T11:56:26;3.55;;;1.90;;
40471;SDS011;26174;42.908;23.800;2022-07-19T11:58:56;3.53;;;1.98;;
40471;SDS011;26174;42.908;23.800;2022-07-19T12:01:27;26.35;;;3.20;;
40471;SDS011;26174;42.908;23.800;2022-07-19T12:04:01;14.43;;;2.63;;
40471;SDS011;26174;42.908;23.800;2022-07-19T12:06:34;4.85;;;2.22;;
40471;SDS011;26174;42.908;23.800;2022-07-19T12:17:07;3.83;;;1.92;;
40471;SDS011;26174;42.908;23.800;2022-07-19T12:19:36;3.25;;;1.85;;
40471;SDS011;26174;42.908;23.800;2022-07-19T12:22:02;4.53;;;1.83;;
40471;SDS011;26174;42.908;23.800;2022-07-19T12:24:28;8.07;;;1.90;;
40471;SDS011;26174;42.908;23.800;2022-07-19T12:32:05;5.85;;;1.80;;
40471;SDS011;26174;42.908;23.800;2022-07-19T12:34:41;6.22;;;2.08;;
40471;SDS011;26174;42.908;23.800;2022-07-19T12:39:56;4.63;;;1.95;;
40471;SDS011;26174;42.908;23.800;2022-07-19T12:42:21;4.05;;;1.55;;
40471;SDS011;26174;42.908;23.800;2022-07-19T12:44:47;4.03;;;2.30;;
40471;SDS011;26174;42.908;23.800;2022-07-19T12:47:14;3.08;;;1.90;;
40471;SDS011;26174;42.908;23.800;2022-07-19T12:49:41;2.30;;;1.73;;
40471;SDS011;26174;42.908;23.800;2022-07-19T12:52:08;7.65;;;1.80;;
40471;SDS011;26174;42.908;23.800;2022-07-19T12:54:35;8.80;;;1.90;;
40471;SDS011;26174;42.908;23.800;2022-07-19T12:57:01;3.05;;;1.60;;
40471;SDS011;26174;42.908;23.800;2022-07-19T12:59:26;3.28;;;1.90;;
40471;SDS011;26174;42.908;23.800;2022-07-19T13:02:04;4.20;;;1.63;;
40471;SDS011;26174;42.908;23.800;2022-07-19T13:04:30;3.72;;;1.65;;
40471;SDS011;26174;42.908;23.800;2022-07-19T13:06:55;3.45;;;1.77;;
40471;SDS011;26174;42.908;23.800;2022-07-19T13:09:21;2.38;;;2.05;;
40471;SDS011;26174;42.908;23.800;2022-07-19T13:11:46;6.90;;;2.50;;
40471;SDS011;26174;42.908;23.800;2022-07-19T13:14:12;1.73;;;1.58;;
40471;SDS011;26174;42.908;23.800;2022-07-19T13:16:38;4.05;;;1.95;;
40471;SDS011;26174;42.908;23.800;2022-07-19T13:19:04;2.63;;;1.80;;
40471;SDS011;26174;42.908;23.800;2022-07-19T13:21:30;2.10;;;1.60;;
40471;SDS011;26174;42.908;23.800;2022-07-19T13:23:55;2.55;;;1.80;;
40471;SDS011;26174;42.908;23.800;2022-07-19T13:26:21;2.63;;;1.63;;
40471;SDS011;26174;42.908;23.800;2022-07-19T13:28:46;2.65;;;2.10;;
40471;SDS011;26174;42.908;23.800;2022-07-19T13:31:12;3.92;;;1.80;;
40471;SDS011;26174;42.908;23.800;2022-07-19T13:33:38;2.28;;;1.70;;
40471;SDS011;26174;42.908;23.800;2022-07-19T13:36:03;7.38;;;1.80;;
40471;SDS011;26174;42.908;23.800;2022-07-19T13:38:29;5.82;;;1.88;;
40471;SDS011;26174;42.908;23.800;2022-07-19T13:40:55;1.30;;;1.20;;
40471;SDS011;26174;42.908;23.800;2022-07-19T13:43:21;7.25;;;1.98;;
40471;SDS011;26174;42.908;23.800;2022-07-19T13:45:47;12.43;;;4.45;;
40471;SDS011;26174;42.908;23.800;2022-07-19T13:48:12;5.60;;;1.67;;
40471;SDS011;26174;42.908;23.800;2022-07-19T13:50:38;7.75;;;2.17;;
40471;SDS011;26174;42.908;23.800;2022-07-19T13:53:04;15.00;;;3.92;;
40471;SDS011;26174;42.908;23.800;2022-07-19T13:55:29;5.32;;;3.45;;
40471;SDS011;26174;42.908;23.800;2022-07-19T13:57:56;3.45;;;2.10;;
40471;SDS011;26174;42.908;23.800;2022-07-19T14:00:22;4.50;;;2.95;;
40471;SDS011;26174;42.908;23.800;2022-07-19T14:02:48;5.85;;;2.45;;
40471;SDS011;26174;42.908;23.800;2022-07-19T14:05:14;6.03;;;1.80;;
40471;SDS011;26174;42.908;23.800;2022-07-19T14:07:40;3.55;;;1.88;;
40471;SDS011;26174;42.908;23.800;2022-07-19T14:10:06;5.93;;;2.00;;
40471;SDS011;26174;42.908;23.800;2022-07-19T14:12:32;3.58;;;2.60;;
40471;SDS011;26174;42.908;23.800;2022-07-19T14:14:57;5.50;;;3.28;;
40471;SDS011;26174;42.908;23.800;2022-07-19T14:17:23;7.40;;;2.40;;
40471;SDS011;26174;42.908;23.800;2022-07-19T14:19:48;8.70;;;2.53;;
40471;SDS011;26174;42.908;23.800;2022-07-19T14:22:14;1.90;;;1.80;;
40471;SDS011;26174;42.908;23.800;2022-07-19T14:24:40;4.70;;;2.00;;
40471;SDS011;26174;42.908;23.800;2022-07-19T14:27:06;6.60;;;2.00;;
40471;SDS011;26174;42.908;23.800;2022-07-19T14:29:32;3.25;;;1.92;;
40471;SDS011;26174;42.908;23.800;2022-07-19T14:31:57;5.82;;;2.40;;
40471;SDS011;26174;42.908;23.800;2022-07-19T14:34:23;3.42;;;2.00;;
40471;SDS011;26174;42.908;23.800;2022-07-19T14:36:49;3.83;;;2.33;;
40471;SDS011;26174;42.908;23.800;2022-07-19T14:39:14;8.52;;;2.30;;
40471;SDS011;26174;42.908;23.800;2022-07-19T14:41:40;2.13;;;1.77;;
40471;SDS011;26174;42.908;23.800;2022-07-19T14:44:05;6.20;;;2.00;;
40471;SDS011;26174;42.908;23.800;2022-07-19T14:46:31;12.30;;;2.10;;
40471;SDS011;26174;42.908;23.800;2022-07-19T14:48:57;2.63;;;2.05;;
40471;SDS011;26174;42.908;23.800;2022-07-19T14:51:22;3.03;;;1.75;;
40471;SDS011;26174;42.908;23.800;2022-07-19T14:53:48;7.05;;;1.80;;
40471;SDS011;26174;42.908;23.800;2022-07-19T14:56:14;3.90;;;1.70;;
40471;SDS011;26174;42.908;23.800;2022-07-19T14:58:39;9.38;;;2.15;;
40471;SDS011;26174;42.908;23.800;2022-07-19T15:01:07;3.70;;;2.50;;